createdAt,value
2023-02-08T00:00:39.073Z,83.07
2023-02-08T00:05:59.120Z,83.00
2023-02-08T00:11:01.882Z,83.07
2023-02-08T00:16:04.820Z,83.14
2023-02-08T00:21:13.014Z,83.36
2023-02-08T00:26:16.015Z,83.23
2023-02-08T00:31:18.699Z,83.49
2023-02-08T00:36:21.436Z,83.56
2023-02-08T00:41:24.042Z,83.53
2023-02-08T00:46:26.864Z,83.50
2023-02-08T00:51:29.690Z,83.62
2023-02-08T00:56:32.375Z,83.69
2023-02-08T01:01:35.803Z,83.46
2023-02-08T01:06:39.064Z,83.34
2023-02-08T01:11:42.165Z,83.43
2023-02-08T01:16:44.752Z,83.30
2023-02-08T01:21:49.130Z,82.99
2023-02-08T01:26:52.033Z,83.11
2023-02-08T01:31:54.643Z,83.36
2023-02-08T01:36:57.712Z,83.03
2023-02-08T01:42:00.568Z,82.88
2023-02-08T01:47:03.690Z,82.96
2023-02-08T01:52:12.042Z,83.06
2023-02-08T01:57:15.142Z,82.88
2023-02-08T02:02:21.584Z,82.88
2023-02-08T02:07:28.723Z,82.78
2023-02-08T02:12:33.214Z,82.82
2023-02-08T02:17:38.508Z,82.89
2023-02-08T02:22:59.827Z,82.81
2023-02-08T02:28:10.839Z,82.81
2023-02-08T02:33:48.899Z,82.96
2023-02-08T02:39:02.794Z,82.64
2023-02-08T02:44:14.566Z,82.60
2023-02-08T02:49:17.094Z,82.74
2023-02-08T02:54:39.841Z,82.77
2023-02-08T02:59:45.224Z,83.19
2023-02-08T03:04:51.393Z,82.80
2023-02-08T03:10:00.120Z,82.78
2023-02-08T03:15:27.806Z,82.97
2023-02-08T03:20:41.241Z,83.04
2023-02-08T03:25:50.334Z,83.07
2023-02-08T03:31:15.265Z,83.02
2023-02-08T03:36:27.143Z,83.20
2023-02-08T03:41:34.928Z,83.14
2023-02-08T03:46:57.487Z,83.16
2023-02-08T03:52:03.341Z,83.17
2023-02-08T03:57:14.062Z,83.18
2023-02-08T04:02:21.162Z,83.31
2023-02-08T04:07:24.372Z,83.39
2023-02-08T04:12:27.889Z,83.49
2023-02-08T04:17:30.491Z,83.50
2023-02-08T04:22:33.630Z,83.53
2023-02-08T04:27:36.237Z,83.63
2023-02-08T04:32:39.067Z,83.40
2023-02-08T04:37:41.628Z,83.56
2023-02-08T04:42:44.517Z,83.64
2023-02-08T04:47:47.082Z,83.28
2023-02-08T04:52:49.789Z,83.16
2023-02-08T04:57:52.468Z,83.04
2023-02-08T05:02:57.109Z,83.21
2023-02-08T05:08:01.017Z,83.39
2023-02-08T05:13:04.005Z,82.85
2023-02-08T05:18:06.773Z,82.87
2023-02-08T05:23:09.392Z,82.65
2023-02-08T05:28:12.004Z,82.63
2023-02-08T05:33:15.059Z,82.70
2023-02-08T05:38:17.621Z,82.81
2023-02-08T05:43:20.194Z,82.83
2023-02-08T05:48:23.053Z,82.56
2023-02-08T05:53:25.622Z,82.74
2023-02-08T05:58:28.336Z,82.89
2023-02-08T06:03:31.014Z,82.83
2023-02-08T06:08:33.958Z,82.95
2023-02-08T06:13:36.718Z,82.88
2023-02-08T06:18:39.354Z,82.79
2023-02-08T06:23:42.465Z,82.77
2023-02-08T06:28:44.993Z,82.92
2023-02-08T06:33:47.597Z,82.67
2023-02-08T06:38:51.316Z,82.50
2023-02-08T06:43:54.172Z,82.18
2023-02-08T06:48:58.007Z,81.98
2023-02-08T06:54:00.561Z,81.83
2023-02-08T06:59:03.710Z,81.27
2023-02-08T07:04:07.121Z,81.18
2023-02-08T07:09:09.721Z,81.13
2023-02-08T07:14:14.512Z,80.84
2023-02-08T07:19:17.128Z,80.42
2023-02-08T07:24:19.838Z,80.08
2023-02-08T07:29:22.444Z,80.13
2023-02-08T07:34:25.316Z,80.17
2023-02-08T07:39:28.001Z,80.08
2023-02-08T07:44:30.592Z,80.06
2023-02-08T07:49:33.642Z,79.89
2023-02-08T07:54:36.378Z,79.89
2023-02-08T07:59:39.236Z,79.35
2023-02-08T08:04:42.470Z,78.94
2023-02-08T08:09:45.052Z,78.86
2023-02-08T08:14:48.100Z,78.61
2023-02-08T08:19:51.732Z,77.93
2023-02-08T08:24:54.788Z,77.54
2023-02-08T08:29:59.002Z,77.34
2023-02-08T08:35:02.728Z,77.42
2023-02-08T08:40:06.938Z,77.39
2023-02-08T08:45:10.422Z,77.10
2023-02-08T08:50:13.033Z,76.54
2023-02-08T08:55:15.703Z,76.22
2023-02-08T09:00:19.240Z,75.77
2023-02-08T09:05:21.894Z,75.08
2023-02-08T09:10:24.464Z,74.92
2023-02-08T09:15:27.219Z,74.20
2023-02-08T09:20:29.815Z,73.94
2023-02-08T09:25:33.286Z,73.46
2023-02-08T09:30:35.996Z,73.33
2023-02-08T09:35:38.553Z,72.65
2023-02-08T09:41:12.953Z,72.23
2023-02-08T09:46:24.478Z,72.36
2023-02-08T09:51:51.125Z,72.57
2023-02-08T09:56:54.352Z,72.71
2023-02-08T10:02:04.395Z,72.27
2023-02-08T10:07:11.206Z,71.23
2023-02-08T10:12:13.770Z,71.05
2023-02-08T10:17:25.358Z,71.18
2023-02-08T10:22:34.684Z,71.49
2023-02-08T10:27:50.988Z,71.63
2023-02-08T10:33:02.445Z,71.09
2023-02-08T10:38:24.978Z,70.81
2023-02-08T10:43:36.535Z,70.72
2023-02-08T10:48:55.244Z,70.60
2023-02-08T10:53:58.013Z,70.41
2023-02-08T10:59:04.821Z,70.41
2023-02-08T11:04:11.262Z,70.08
2023-02-08T11:09:31.238Z,69.75
2023-02-08T11:14:46.588Z,69.66
2023-02-08T11:19:50.685Z,69.46
2023-02-08T11:24:59.301Z,69.24
2023-02-08T11:30:23.493Z,69.22
2023-02-08T11:35:29.412Z,68.66
2023-02-08T11:40:36.288Z,68.34
2023-02-08T11:45:39.222Z,68.05
2023-02-08T11:50:41.874Z,68.34
2023-02-08T11:55:44.884Z,67.60
2023-02-08T12:01:24.890Z,67.51
2023-02-08T12:06:43.461Z,67.49
2023-02-08T12:11:56.690Z,67.23
2023-02-08T12:17:02.293Z,67.26
2023-02-08T12:22:12.152Z,66.89
2023-02-08T12:27:43.815Z,67.29
2023-02-08T12:33:18.256Z,66.88
2023-02-08T12:39:10.378Z,66.83
2023-02-08T12:44:28.521Z,66.83
2023-02-08T12:49:31.192Z,66.79
2023-02-08T12:54:42.316Z,66.33
2023-02-08T12:59:53.521Z,65.81
2023-02-08T13:05:00.122Z,66.02
2023-02-08T13:10:49.548Z,65.65
2023-02-08T13:15:58.657Z,65.79
2023-02-08T13:21:15.824Z,65.97
2023-02-08T13:26:31.771Z,65.72
2023-02-08T13:31:41.340Z,64.60
2023-02-08T13:36:56.033Z,63.56
2023-02-08T13:41:59.433Z,63.42
2023-02-08T13:47:03.213Z,63.53
2023-02-08T13:52:08.308Z,63.48
2023-02-08T13:57:42.835Z,63.62
2023-02-08T14:03:19.356Z,63.48
2023-02-08T14:08:31.234Z,63.56
2023-02-08T14:13:45.902Z,62.33
2023-02-08T14:18:54.704Z,60.46
2023-02-08T14:24:04.521Z,59.74
2023-02-08T14:29:07.625Z,61.05
2023-02-08T14:34:40.958Z,62.06
2023-02-08T14:39:44.308Z,63.03
2023-02-08T14:44:57.851Z,63.88
2023-02-08T14:50:18.676Z,63.41
2023-02-08T14:55:30.482Z,64.16
2023-02-08T15:00:36.476Z,65.03
2023-02-08T15:05:48.733Z,65.83
2023-02-08T15:10:51.621Z,66.38
2023-02-08T15:15:57.500Z,66.95
2023-02-08T15:21:04.864Z,67.47
2023-02-08T15:26:26.864Z,68.05
2023-02-08T15:31:33.878Z,68.69
2023-02-08T15:36:38.086Z,69.33
2023-02-08T15:41:40.896Z,69.86
2023-02-08T15:46:47.307Z,70.34
2023-02-08T15:51:50.955Z,70.72
2023-02-08T15:57:24.569Z,71.23
2023-02-08T16:02:32.419Z,71.61
2023-02-08T16:07:39.556Z,72.03
2023-02-08T16:12:44.682Z,72.47
2023-02-08T16:17:48.780Z,72.80
2023-02-08T16:23:01.075Z,73.18
2023-02-08T16:28:05.894Z,73.56
2023-02-08T16:33:09.152Z,73.75
2023-02-08T16:38:21.239Z,74.01
2023-02-08T16:43:27.112Z,74.20
2023-02-08T16:48:34.969Z,74.59
2023-02-08T16:53:42.212Z,74.95
2023-02-08T16:58:45.449Z,75.05
2023-02-08T17:03:50.255Z,75.13
2023-02-08T17:08:53.141Z,75.36
2023-02-08T17:13:55.972Z,75.67
2023-02-08T17:19:01.166Z,75.93
2023-02-08T17:24:04.312Z,76.01
2023-02-08T17:29:07.689Z,76.05
2023-02-08T17:34:10.313Z,76.40
2023-02-08T17:39:15.224Z,76.66
2023-02-08T17:44:19.180Z,76.72
2023-02-08T17:49:22.251Z,77.02
2023-02-08T17:54:24.868Z,77.33
2023-02-08T17:59:27.461Z,77.58
2023-02-08T18:04:30.130Z,77.83
2023-02-08T18:09:33.310Z,78.03
2023-02-08T18:14:38.486Z,78.44
2023-02-08T18:19:41.141Z,78.94
2023-02-08T18:24:43.806Z,78.84
2023-02-08T18:29:46.450Z,79.40
2023-02-08T18:34:49.846Z,79.59
2023-02-08T18:39:52.557Z,79.56
2023-02-08T18:44:55.594Z,79.64
2023-02-08T18:49:58.252Z,79.95
2023-02-08T18:55:01.248Z,79.93
2023-02-08T19:00:04.594Z,79.74
2023-02-08T19:05:07.506Z,79.87
2023-02-08T19:10:10.691Z,80.10
2023-02-08T19:15:13.268Z,80.09
2023-02-08T19:20:15.989Z,79.93
2023-02-08T19:25:18.631Z,80.00
2023-02-08T19:30:21.833Z,80.15
2023-02-08T19:35:24.697Z,80.14
2023-02-08T19:40:27.857Z,79.97
2023-02-08T19:45:30.573Z,80.00
2023-02-08T19:50:33.208Z,80.10
2023-02-08T19:55:36.885Z,79.99
2023-02-08T20:00:41.733Z,79.87
2023-02-08T20:05:46.296Z,80.00
2023-02-08T20:10:49.270Z,79.87
2023-02-08T20:15:59.951Z,79.86
2023-02-08T20:21:04.432Z,79.79
2023-02-08T20:26:11.693Z,79.88
2023-02-08T20:31:18.019Z,80.21
2023-02-08T20:36:23.661Z,80.35
2023-02-08T20:41:28.143Z,80.49
2023-02-08T20:46:34.681Z,80.52
2023-02-08T20:51:37.388Z,80.46
2023-02-08T20:56:40.076Z,80.43
2023-02-08T21:01:44.554Z,80.34
2023-02-08T21:06:47.243Z,80.35
2023-02-08T21:11:51.381Z,80.30
2023-02-08T21:16:56.596Z,80.29
2023-02-08T21:22:01.580Z,80.12
2023-02-08T21:27:04.446Z,80.06
2023-02-08T21:32:08.426Z,80.01
2023-02-08T21:37:11.153Z,80.24
2023-02-08T21:42:13.865Z,80.01
2023-02-08T21:47:16.595Z,79.87
2023-02-08T21:52:35.249Z,79.96
2023-02-08T21:57:40.858Z,80.08
2023-02-08T22:02:43.596Z,80.06
2023-02-08T22:07:55.334Z,80.00
2023-02-08T22:12:58.762Z,80.06
2023-02-08T22:18:03.276Z,80.16
2023-02-08T22:23:06.129Z,80.20
2023-02-08T22:28:09.233Z,80.14
2023-02-08T22:33:11.907Z,80.17
2023-02-08T22:38:14.561Z,80.15
2023-02-08T22:43:20.373Z,80.04
2023-02-08T22:48:22.934Z,80.10
2023-02-08T22:53:26.619Z,80.13
2023-02-08T22:58:29.550Z,80.13
2023-02-08T23:03:32.208Z,80.27
2023-02-08T23:08:35.955Z,80.35
2023-02-08T23:13:38.579Z,80.32
2023-02-08T23:18:41.899Z,80.41
2023-02-08T23:23:46.786Z,80.20
2023-02-08T23:28:51.477Z,80.03
2023-02-08T23:33:54.365Z,79.98
2023-02-08T23:38:57.265Z,79.91
2023-02-08T23:43:59.860Z,79.91
2023-02-08T23:49:02.480Z,80.01
2023-02-08T23:54:05.568Z,80.35
2023-02-08T23:59:10.747Z,80.41
